ROT441 LRCL-LHBP
Flight info
| Callsign | ROT441 |
|---|---|
| Flight time | 0h 43m |
| Altitude | 40000 |
| Route | AKUPO DCT RUPUG DCT KEZAL |
| Aircraft | B736/M-SDE2E3FGHIRWXY/LB1 |
Departure
| Time | 2026-05-06 08:41 |
|---|---|
| Airport | Avram Iancu Cluj International Airport (LRCL) |
Arrival
| Time | 2026-05-06 09:24 |
|---|---|
| Airport | Budapest Liszt Ferenc International Airport (LHBP) |
| Time | Latitude | Longitude | Altitude | Speed | Heading |
|---|---|---|---|---|---|
| 2026-05-06 08:18 | 46.78334 | 23.68603 | 1035 ft | 0 kts | 171° |
| 2026-05-06 08:33 | 46.78344 | 23.68599 | 1035 ft | 2 kts | 90° |
| 2026-05-06 08:33 | 46.78343 | 23.68589 | 1035 ft | 0 kts | 74° |
| 2026-05-06 08:36 | 46.78345 | 23.68603 | 1035 ft | 3 kts | 78° |
| 2026-05-06 08:36 | 46.78354 | 23.68648 | 1035 ft | 6 kts | 59° |
| 2026-05-06 08:37 | 46.78396 | 23.68662 | 1035 ft | 8 kts | 356° |
| 2026-05-06 08:37 | 46.78456 | 23.68654 | 1035 ft | 9 kts | 343° |
| 2026-05-06 08:37 | 46.78474 | 23.68640 | 1035 ft | 4 kts | 332° |
| 2026-05-06 08:37 | 46.78498 | 23.68607 | 1035 ft | 6 kts | 299° |
| 2026-05-06 08:38 | 46.78500 | 23.68537 | 1035 ft | 8 kts | 260° |
| 2026-05-06 08:38 | 46.78487 | 23.68442 | 1035 ft | 11 kts | 258° |
| 2026-05-06 08:38 | 46.78470 | 23.68322 | 1035 ft | 13 kts | 262° |
| 2026-05-06 08:38 | 46.78511 | 23.68196 | 1035 ft | 15 kts | 290° |
| 2026-05-06 08:39 | 46.78492 | 23.68044 | 1035 ft | 16 kts | 252° |
| 2026-05-06 08:39 | 46.78454 | 23.67874 | 1035 ft | 19 kts | 251° |
| 2026-05-06 08:39 | 46.78411 | 23.67687 | 1035 ft | 21 kts | 251° |
| 2026-05-06 08:39 | 46.78364 | 23.67480 | 1035 ft | 22 kts | 252° |
| 2026-05-06 08:40 | 46.78363 | 23.67256 | 1035 ft | 23 kts | 299° |
| 2026-05-06 08:40 | 46.78472 | 23.67214 | 1036 ft | 17 kts | 57° |
| 2026-05-06 08:40 | 46.78515 | 23.67374 | 1035 ft | 52 kts | 71° |
| 2026-05-06 08:40 | 46.78846 | 23.68899 | 1348 ft | 161 kts | 74° |
| 2026-05-06 08:41 | 46.79177 | 23.70556 | 2411 ft | 190 kts | 73° |
| 2026-05-06 08:41 | 46.79455 | 23.71806 | 3171 ft | 200 kts | 75° |
| 2026-05-06 08:41 | 46.80103 | 23.74680 | 3926 ft | 243 kts | 72° |
| 2026-05-06 08:41 | 46.80484 | 23.76359 | 4206 ft | 264 kts | 73° |
| 2026-05-06 08:42 | 46.81073 | 23.78951 | 5113 ft | 276 kts | 73° |
| 2026-05-06 08:42 | 46.81748 | 23.81613 | 6316 ft | 283 kts | 61° |
| 2026-05-06 08:42 | 46.83151 | 23.83633 | 7491 ft | 287 kts | 27° |
| 2026-05-06 08:42 | 46.85074 | 23.84339 | 8646 ft | 291 kts | 359° |
| 2026-05-06 08:43 | 46.87056 | 23.83781 | 9726 ft | 296 kts | 334° |
| 2026-05-06 08:43 | 46.88750 | 23.82060 | 10600 ft | 305 kts | 311° |
| 2026-05-06 08:43 | 46.89901 | 23.79315 | 10912 ft | 332 kts | 287° |
| 2026-05-06 08:43 | 46.90380 | 23.75927 | 11516 ft | 346 kts | 272° |
| 2026-05-06 08:44 | 46.90462 | 23.72411 | 12479 ft | 351 kts | 268° |
| 2026-05-06 08:44 | 46.90432 | 23.68819 | 13511 ft | 355 kts | 267° |
| 2026-05-06 08:44 | 46.90386 | 23.65257 | 14391 ft | 361 kts | 267° |
| 2026-05-06 08:44 | 46.90353 | 23.61491 | 15256 ft | 366 kts | 268° |
| 2026-05-06 08:45 | 46.90342 | 23.57719 | 16114 ft | 372 kts | 268° |
| 2026-05-06 08:45 | 46.90350 | 23.53951 | 16944 ft | 378 kts | 269° |
| 2026-05-06 08:45 | 46.90370 | 23.50050 | 17820 ft | 383 kts | 269° |
| 2026-05-06 08:45 | 46.90400 | 23.46117 | 18640 ft | 388 kts | 269° |
| 2026-05-06 08:46 | 46.90432 | 23.42198 | 19418 ft | 391 kts | 269° |
| 2026-05-06 08:46 | 46.90468 | 23.38180 | 20262 ft | 393 kts | 270° |
| 2026-05-06 08:46 | 46.90503 | 23.34167 | 21091 ft | 395 kts | 270° |
| 2026-05-06 08:46 | 46.90538 | 23.30136 | 21870 ft | 398 kts | 270° |
| 2026-05-06 08:47 | 46.90570 | 23.26115 | 22553 ft | 403 kts | 270° |
| 2026-05-06 08:47 | 46.90602 | 23.21975 | 23292 ft | 408 kts | 271° |
| 2026-05-06 08:47 | 46.90633 | 23.17865 | 23962 ft | 411 kts | 271° |
| 2026-05-06 08:47 | 46.90662 | 23.13680 | 24625 ft | 413 kts | 271° |
| 2026-05-06 08:48 | 46.90689 | 23.09447 | 25267 ft | 416 kts | 271° |
| 2026-05-06 08:48 | 46.90716 | 23.05196 | 25869 ft | 418 kts | 270° |
| 2026-05-06 08:48 | 46.90740 | 23.00918 | 26484 ft | 421 kts | 270° |
| 2026-05-06 08:48 | 46.90763 | 22.96630 | 27205 ft | 422 kts | 270° |
| 2026-05-06 08:49 | 46.90785 | 22.92355 | 27754 ft | 425 kts | 270° |
| 2026-05-06 08:49 | 46.90805 | 22.87997 | 28211 ft | 431 kts | 270° |
| 2026-05-06 08:49 | 46.90824 | 22.83628 | 28731 ft | 434 kts | 270° |
| 2026-05-06 08:49 | 46.90842 | 22.79177 | 29277 ft | 436 kts | 270° |
| 2026-05-06 08:50 | 46.90857 | 22.74765 | 29812 ft | 439 kts | 270° |
| 2026-05-06 08:50 | 46.90872 | 22.70238 | 30276 ft | 441 kts | 270° |
| 2026-05-06 08:50 | 46.90884 | 22.65779 | 30649 ft | 445 kts | 270° |
| 2026-05-06 08:50 | 46.90895 | 22.61243 | 31014 ft | 445 kts | 270° |
| 2026-05-06 08:51 | 46.90903 | 22.56706 | 31351 ft | 445 kts | 270° |
| 2026-05-06 08:51 | 46.90910 | 22.52208 | 31732 ft | 444 kts | 271° |
| 2026-05-06 08:51 | 46.90916 | 22.47666 | 32000 ft | 444 kts | 271° |
| 2026-05-06 08:52 | 46.90921 | 22.38673 | 32006 ft | 443 kts | 271° |
| 2026-05-06 08:52 | 46.90921 | 22.29660 | 32013 ft | 441 kts | 271° |
| 2026-05-06 08:53 | 46.91402 | 22.20770 | 32006 ft | 440 kts | 281° |
| 2026-05-06 08:53 | 46.92571 | 22.11996 | 31996 ft | 440 kts | 281° |
| 2026-05-06 08:54 | 46.93750 | 22.03219 | 31997 ft | 440 kts | 281° |
| 2026-05-06 08:54 | 46.94900 | 21.94378 | 31992 ft | 441 kts | 281° |
| 2026-05-06 08:55 | 46.96020 | 21.85584 | 31998 ft | 440 kts | 281° |
| 2026-05-06 08:55 | 46.97127 | 21.76804 | 31991 ft | 440 kts | 280° |
| 2026-05-06 08:56 | 46.98233 | 21.67969 | 31994 ft | 438 kts | 280° |
| 2026-05-06 08:56 | 46.99322 | 21.59226 | 31991 ft | 437 kts | 280° |
| 2026-05-06 08:57 | 47.00402 | 21.50496 | 31981 ft | 434 kts | 280° |
| 2026-05-06 08:57 | 47.00930 | 21.46210 | 31604 ft | 422 kts | 280° |
| 2026-05-06 08:57 | 47.01445 | 21.42017 | 31730 ft | 418 kts | 280° |
| 2026-05-06 08:58 | 47.02489 | 21.33466 | 31808 ft | 434 kts | 279° |
| 2026-05-06 08:58 | 47.03564 | 21.24629 | 31611 ft | 443 kts | 279° |
| 2026-05-06 08:59 | 47.04632 | 21.15860 | 31707 ft | 435 kts | 279° |
| 2026-05-06 08:59 | 47.05671 | 21.07258 | 31686 ft | 413 kts | 279° |
| 2026-05-06 08:59 | 47.06154 | 21.03189 | 31686 ft | 394 kts | 279° |
| 2026-05-06 09:00 | 47.06611 | 20.99316 | 31689 ft | 376 kts | 279° |
| 2026-05-06 09:00 | 47.07493 | 20.91815 | 31677 ft | 375 kts | 279° |
| 2026-05-06 09:00 | 47.07939 | 20.88016 | 31258 ft | 377 kts | 279° |
| 2026-05-06 09:01 | 47.08387 | 20.84186 | 31014 ft | 385 kts | 278° |
| 2026-05-06 09:01 | 47.08845 | 20.80253 | 30786 ft | 403 kts | 278° |
| 2026-05-06 09:01 | 47.09329 | 20.76085 | 30562 ft | 420 kts | 278° |
| 2026-05-06 09:01 | 47.09822 | 20.71837 | 30331 ft | 434 kts | 278° |
| 2026-05-06 09:02 | 47.10331 | 20.67438 | 30097 ft | 444 kts | 278° |
| 2026-05-06 09:02 | 47.10851 | 20.62941 | 29806 ft | 442 kts | 278° |
| 2026-05-06 09:02 | 47.11363 | 20.58496 | 29512 ft | 438 kts | 278° |
| 2026-05-06 09:02 | 47.11865 | 20.54112 | 29228 ft | 433 kts | 278° |
| 2026-05-06 09:03 | 47.12367 | 20.49716 | 28945 ft | 433 kts | 278° |
| 2026-05-06 09:03 | 47.12857 | 20.45408 | 28677 ft | 432 kts | 278° |
| 2026-05-06 09:03 | 47.13351 | 20.41048 | 28402 ft | 431 kts | 278° |
| 2026-05-06 09:03 | 47.13841 | 20.36709 | 28132 ft | 429 kts | 278° |
| 2026-05-06 09:04 | 47.14331 | 20.32361 | 27865 ft | 428 kts | 278° |
| 2026-05-06 09:04 | 47.14808 | 20.28104 | 27530 ft | 426 kts | 279° |
| 2026-05-06 09:04 | 47.15606 | 20.23909 | 26732 ft | 423 kts | 292° |
| 2026-05-06 09:04 | 47.17105 | 20.20225 | 25984 ft | 420 kts | 307° |
| 2026-05-06 09:05 | 47.19045 | 20.17081 | 25292 ft | 417 kts | 311° |
| 2026-05-06 09:05 | 47.21042 | 20.14027 | 24560 ft | 414 kts | 312° |
| 2026-05-06 09:05 | 47.23031 | 20.10993 | 23827 ft | 412 kts | 311° |
| 2026-05-06 09:05 | 47.25027 | 20.07911 | 23019 ft | 409 kts | 311° |
| 2026-05-06 09:06 | 47.26942 | 20.04918 | 22260 ft | 406 kts | 311° |
| 2026-05-06 09:06 | 47.28868 | 20.01883 | 21533 ft | 402 kts | 311° |
| 2026-05-06 09:06 | 47.30776 | 19.98867 | 20818 ft | 398 kts | 311° |
| 2026-05-06 09:06 | 47.32653 | 19.95893 | 20132 ft | 395 kts | 311° |
| 2026-05-06 09:07 | 47.34504 | 19.92959 | 19452 ft | 393 kts | 311° |
| 2026-05-06 09:07 | 47.36366 | 19.90006 | 18771 ft | 391 kts | 311° |
| 2026-05-06 09:07 | 47.38213 | 19.87075 | 18056 ft | 389 kts | 310° |
| 2026-05-06 09:07 | 47.40059 | 19.84142 | 17308 ft | 387 kts | 310° |
| 2026-05-06 09:08 | 47.41840 | 19.81250 | 16615 ft | 383 kts | 310° |
| 2026-05-06 09:08 | 47.43622 | 19.78327 | 15946 ft | 380 kts | 309° |
| 2026-05-06 09:08 | 47.45393 | 19.75419 | 15291 ft | 377 kts | 309° |
| 2026-05-06 09:08 | 47.47135 | 19.72562 | 14709 ft | 372 kts | 309° |
| 2026-05-06 09:09 | 47.48843 | 19.69768 | 14467 ft | 359 kts | 309° |
| 2026-05-06 09:09 | 47.50484 | 19.67074 | 14236 ft | 356 kts | 309° |
| 2026-05-06 09:09 | 47.52160 | 19.64319 | 14014 ft | 362 kts | 309° |
| 2026-05-06 09:09 | 47.53863 | 19.61521 | 13777 ft | 364 kts | 309° |
| 2026-05-06 09:10 | 47.55565 | 19.58725 | 13517 ft | 361 kts | 309° |
| 2026-05-06 09:10 | 47.57201 | 19.56033 | 13218 ft | 353 kts | 309° |
| 2026-05-06 09:10 | 47.58820 | 19.53370 | 12886 ft | 342 kts | 309° |
| 2026-05-06 09:10 | 47.60180 | 19.50620 | 12715 ft | 321 kts | 292° |
| 2026-05-06 09:11 | 47.60711 | 19.47519 | 12627 ft | 301 kts | 271° |
| 2026-05-06 09:11 | 47.60525 | 19.44552 | 12517 ft | 285 kts | 255° |
| 2026-05-06 09:11 | 47.59874 | 19.41827 | 12364 ft | 274 kts | 243° |
| 2026-05-06 09:11 | 47.58810 | 19.39533 | 12130 ft | 269 kts | 227° |
| 2026-05-06 09:12 | 47.57486 | 19.37640 | 11816 ft | 267 kts | 224° |
| 2026-05-06 09:12 | 47.56131 | 19.35807 | 11472 ft | 266 kts | 223° |
| 2026-05-06 09:12 | 47.54620 | 19.34214 | 11094 ft | 267 kts | 204° |
| 2026-05-06 09:12 | 47.52812 | 19.33749 | 10861 ft | 267 kts | 180° |
| 2026-05-06 09:13 | 47.51039 | 19.34354 | 10718 ft | 265 kts | 161° |
| 2026-05-06 09:13 | 47.49487 | 19.35880 | 10429 ft | 271 kts | 141° |
| 2026-05-06 09:13 | 47.48185 | 19.37915 | 10121 ft | 272 kts | 136° |
| 2026-05-06 09:13 | 47.46931 | 19.40005 | 9826 ft | 270 kts | 137° |
| 2026-05-06 09:14 | 47.45694 | 19.42044 | 9464 ft | 270 kts | 137° |
| 2026-05-06 09:14 | 47.44429 | 19.44107 | 9146 ft | 268 kts | 137° |
| 2026-05-06 09:14 | 47.43189 | 19.46118 | 8857 ft | 267 kts | 137° |
| 2026-05-06 09:14 | 47.41935 | 19.48139 | 8583 ft | 265 kts | 137° |
| 2026-05-06 09:15 | 47.40689 | 19.50141 | 8301 ft | 263 kts | 138° |
| 2026-05-06 09:15 | 47.39463 | 19.52110 | 8062 ft | 261 kts | 138° |
| 2026-05-06 09:15 | 47.38233 | 19.54084 | 7775 ft | 260 kts | 139° |
| 2026-05-06 09:15 | 47.37003 | 19.56055 | 7525 ft | 259 kts | 138° |
| 2026-05-06 09:16 | 47.35805 | 19.57976 | 7382 ft | 252 kts | 138° |
| 2026-05-06 09:16 | 47.34587 | 19.59768 | 7273 ft | 243 kts | 143° |
| 2026-05-06 09:16 | 47.33188 | 19.61035 | 6858 ft | 236 kts | 173° |
| 2026-05-06 09:16 | 47.31624 | 19.60769 | 6641 ft | 222 kts | 206° |
| 2026-05-06 09:17 | 47.30409 | 19.59534 | 6545 ft | 203 kts | 227° |
| 2026-05-06 09:17 | 47.29652 | 19.57814 | 5963 ft | 203 kts | 246° |
| 2026-05-06 09:17 | 47.29374 | 19.55791 | 5215 ft | 206 kts | 265° |
| 2026-05-06 09:17 | 47.29408 | 19.53686 | 4493 ft | 204 kts | 267° |
| 2026-05-06 09:18 | 47.29446 | 19.51689 | 4207 ft | 184 kts | 268° |
| 2026-05-06 09:18 | 47.29653 | 19.49950 | 3992 ft | 168 kts | 295° |
| 2026-05-06 09:18 | 47.30378 | 19.48682 | 3801 ft | 157 kts | 305° |
| 2026-05-06 09:18 | 47.31078 | 19.47524 | 3622 ft | 147 kts | 304° |
| 2026-05-06 09:19 | 47.31752 | 19.46418 | 3417 ft | 144 kts | 305° |
| 2026-05-06 09:19 | 47.32443 | 19.45285 | 3275 ft | 154 kts | 305° |
| 2026-05-06 09:19 | 47.33146 | 19.44155 | 3071 ft | 142 kts | 306° |
| 2026-05-06 09:19 | 47.33780 | 19.43128 | 2887 ft | 131 kts | 304° |
| 2026-05-06 09:20 | 47.34397 | 19.42137 | 2718 ft | 131 kts | 304° |
| 2026-05-06 09:20 | 47.34987 | 19.41105 | 2520 ft | 130 kts | 304° |
| 2026-05-06 09:20 | 47.35605 | 19.40126 | 2347 ft | 131 kts | 306° |
| 2026-05-06 09:20 | 47.36223 | 19.39144 | 2169 ft | 130 kts | 305° |
| 2026-05-06 09:21 | 47.36835 | 19.38169 | 1981 ft | 129 kts | 306° |
| 2026-05-06 09:21 | 47.37440 | 19.37210 | 1826 ft | 129 kts | 304° |
| 2026-05-06 09:21 | 47.38054 | 19.36221 | 1645 ft | 130 kts | 303° |
| 2026-05-06 09:21 | 47.38656 | 19.35256 | 1473 ft | 125 kts | 303° |
| 2026-05-06 09:22 | 47.39242 | 19.34312 | 1328 ft | 125 kts | 303° |
| 2026-05-06 09:22 | 47.39822 | 19.33366 | 1199 ft | 124 kts | 304° |
| 2026-05-06 09:22 | 47.40444 | 19.32406 | 1122 ft | 133 kts | 305° |
| 2026-05-06 09:22 | 47.41061 | 19.31376 | 967 ft | 135 kts | 302° |
| 2026-05-06 09:23 | 47.41692 | 19.30355 | 759 ft | 137 kts | 305° |
| 2026-05-06 09:23 | 47.42331 | 19.29319 | 516 ft | 134 kts | 306° |
| 2026-05-06 09:23 | 47.42868 | 19.28430 | 487 ft | 76 kts | 313° |
| 2026-05-06 09:23 | 47.43156 | 19.27962 | 489 ft | 52 kts | 314° |
| 2026-05-06 09:24 | 47.43347 | 19.27556 | 487 ft | 45 kts | 288° |
| 2026-05-06 09:24 | 47.43400 | 19.27174 | 490 ft | 35 kts | 282° |
| 2026-05-06 09:24 | 47.43501 | 19.26879 | 483 ft | 36 kts | 309° |
| 2026-05-06 09:24 | 47.43700 | 19.26554 | 477 ft | 48 kts | 313° |
| 2026-05-06 09:25 | 47.43659 | 19.26285 | 484 ft | 32 kts | 219° |
| 2026-05-06 09:25 | 47.43548 | 19.26165 | 485 ft | 13 kts | 197° |
| 2026-05-06 09:25 | 47.43460 | 19.26164 | 484 ft | 4 kts | 179° |
| 2026-05-06 09:25 | 47.43452 | 19.26165 | 485 ft | 0 kts | 179° |